createdAt,value
2022-11-27T00:00:18.017Z,5.93
2022-11-27T00:02:45.076Z,5.97
2022-11-27T00:05:12.127Z,5.97
2022-11-27T00:07:39.031Z,6.65
2022-11-27T00:10:06.909Z,5.95
2022-11-27T00:12:33.820Z,5.82
2022-11-27T00:15:00.781Z,5.97
2022-11-27T00:17:27.656Z,6.03
2022-11-27T00:19:54.533Z,7.30
2022-11-27T00:22:21.412Z,6.03
2022-11-27T00:24:48.313Z,6.62
2022-11-27T00:27:15.200Z,5.80
2022-11-27T00:29:42.086Z,6.20
2022-11-27T00:32:09.207Z,5.95
2022-11-27T00:34:36.180Z,6.32
2022-11-27T00:37:03.106Z,5.82
2022-11-27T00:39:30.064Z,6.15
2022-11-27T00:41:57.034Z,5.82
2022-11-27T00:44:23.980Z,6.20
2022-11-27T00:46:50.942Z,6.03
2022-11-27T00:49:17.899Z,5.62
2022-11-27T00:51:44.812Z,6.87
2022-11-27T00:54:11.742Z,5.22
2022-11-27T00:56:40.090Z,6.10
2022-11-27T00:59:08.324Z,6.12
2022-11-27T01:01:37.771Z,5.62
2022-11-27T01:04:06.794Z,5.60
2022-11-27T01:06:33.811Z,5.97
2022-11-27T01:09:00.904Z,5.15
2022-11-27T01:11:31.062Z,4.78
2022-11-27T01:13:59.971Z,5.18
2022-11-27T01:16:29.420Z,5.07
2022-11-27T01:19:00.674Z,5.90
2022-11-27T01:21:30.769Z,6.07
2022-11-27T01:23:57.685Z,6.07
2022-11-27T01:26:24.661Z,5.45
2022-11-27T01:28:56.742Z,5.53
2022-11-27T01:31:30.127Z,6.75
2022-11-27T01:33:59.247Z,6.10
2022-11-27T01:36:26.762Z,5.82
2022-11-27T01:38:53.804Z,6.15
2022-11-27T01:41:32.328Z,5.15
2022-11-27T01:44:03.270Z,6.03
2022-11-27T01:46:44.657Z,5.50
2022-11-27T01:49:11.504Z,5.60
2022-11-27T01:54:09.660Z,5.30
2022-11-27T01:56:37.007Z,6.15
2022-11-27T01:59:04.337Z,5.55
2022-11-27T02:01:31.228Z,5.62
2022-11-27T02:03:59.705Z,5.60
2022-11-27T02:06:27.376Z,4.87
2022-11-27T02:08:54.465Z,5.22
2022-11-27T02:11:39.633Z,5.50
2022-11-27T02:14:39.163Z,5.53
2022-11-27T02:17:30.933Z,5.22
2022-11-27T02:20:12.933Z,5.72
2022-11-27T02:22:46.157Z,5.43
2022-11-27T02:25:33.640Z,6.50
2022-11-27T02:28:00.488Z,5.30
2022-11-27T02:30:28.542Z,5.22
2022-11-27T02:33:00.373Z,5.03
2022-11-27T02:35:32.523Z,5.20
2022-11-27T02:38:23.324Z,5.53
2022-11-27T02:40:59.387Z,5.53
2022-11-27T02:43:39.695Z,5.62
2022-11-27T02:46:08.683Z,5.10
2022-11-27T02:48:49.226Z,5.07
2022-11-27T02:51:18.447Z,4.90
2022-11-27T02:54:06.298Z,5.80
2022-11-27T02:56:34.784Z,5.40
2022-11-27T02:59:07.827Z,4.87
2022-11-27T03:01:43.151Z,4.85
2022-11-27T03:04:17.046Z,5.03
2022-11-27T03:06:50.648Z,5.28
2022-11-27T03:09:20.398Z,5.45
2022-11-27T03:11:47.778Z,5.85
2022-11-27T03:14:15.304Z,5.70
2022-11-27T03:17:03.820Z,5.68
2022-11-27T03:19:52.100Z,5.82
2022-11-27T03:22:19.278Z,5.62
2022-11-27T03:24:46.214Z,5.80
2022-11-27T03:27:15.892Z,5.90
2022-11-27T03:29:49.252Z,6.12
2022-11-27T03:32:16.898Z,5.82
2022-11-27T03:34:43.875Z,5.80
2022-11-27T03:37:10.828Z,6.10
2022-11-27T03:39:37.775Z,6.43
2022-11-27T03:42:13.764Z,6.35
2022-11-27T03:44:43.585Z,6.07
2022-11-27T03:47:22.690Z,6.15
2022-11-27T03:50:12.261Z,6.65
2022-11-27T03:52:41.850Z,7.15
2022-11-27T03:55:13.777Z,6.30
2022-11-27T03:58:05.280Z,5.93
2022-11-27T04:00:36.436Z,6.37
2022-11-27T04:03:04.730Z,6.05
2022-11-27T04:05:31.682Z,5.95
2022-11-27T04:07:58.633Z,5.75
2022-11-27T04:10:25.563Z,6.78
2022-11-27T04:12:52.464Z,6.30
2022-11-27T04:15:19.400Z,6.00
2022-11-27T04:17:46.277Z,6.57
2022-11-27T04:20:16.486Z,6.95
2022-11-27T04:22:43.364Z,6.28
2022-11-27T04:25:10.245Z,6.62
2022-11-27T04:27:37.115Z,6.35
2022-11-27T04:30:04.830Z,6.00
2022-11-27T04:32:31.709Z,6.53
2022-11-27T04:34:58.560Z,7.07
2022-11-27T04:37:25.699Z,6.93
2022-11-27T04:39:52.601Z,6.95
2022-11-27T04:42:19.463Z,6.80
2022-11-27T04:47:13.046Z,6.75
2022-11-27T04:52:06.896Z,6.53
2022-11-27T04:54:33.829Z,6.87
2022-11-27T04:57:00.707Z,7.22
2022-11-27T04:59:27.614Z,7.25
2022-11-27T05:01:54.585Z,7.35
2022-11-27T05:04:22.144Z,7.32
2022-11-27T05:06:49.220Z,7.37
2022-11-27T05:09:18.355Z,7.60
2022-11-27T05:11:45.406Z,7.70
2022-11-27T05:14:15.298Z,6.87
2022-11-27T05:16:43.201Z,7.68
2022-11-27T05:19:11.170Z,7.30
2022-11-27T05:21:38.382Z,8.02
2022-11-27T05:24:05.732Z,6.90
2022-11-27T05:26:32.784Z,7.00
2022-11-27T05:29:00.809Z,7.53
2022-11-27T05:31:28.039Z,7.65
2022-11-27T05:33:55.004Z,7.57
2022-11-27T05:36:21.984Z,7.55
2022-11-27T05:38:48.889Z,6.40
2022-11-27T05:41:15.754Z,6.78
2022-11-27T05:43:42.764Z,7.12
2022-11-27T05:46:11.956Z,7.43
2022-11-27T05:48:38.999Z,7.93
2022-11-27T05:51:06.227Z,6.95
2022-11-27T05:53:33.604Z,7.35
2022-11-27T05:56:14.911Z,6.72
2022-11-27T05:58:43.479Z,7.03
2022-11-27T06:01:11.777Z,7.05
2022-11-27T06:03:41.616Z,7.47
2022-11-27T06:06:10.589Z,7.28
2022-11-27T06:08:38.327Z,6.70
2022-11-27T06:11:16.639Z,7.10
2022-11-27T06:13:43.586Z,6.60
2022-11-27T06:16:21.893Z,6.75
2022-11-27T06:18:53.430Z,6.78
2022-11-27T06:21:21.383Z,6.72
2022-11-27T06:23:48.268Z,7.00
2022-11-27T06:26:20.865Z,6.15
2022-11-27T06:28:48.479Z,6.80
2022-11-27T06:31:18.409Z,7.15
2022-11-27T06:33:46.671Z,6.70
2022-11-27T06:36:13.676Z,6.93
2022-11-27T06:38:40.698Z,6.70
2022-11-27T06:41:10.092Z,6.60
2022-11-27T06:43:37.168Z,6.10
2022-11-27T06:46:05.879Z,6.28
2022-11-27T06:48:33.864Z,6.53
2022-11-27T06:51:05.214Z,6.40
2022-11-27T06:53:34.763Z,6.60
2022-11-27T06:56:09.753Z,6.65
2022-11-27T06:58:37.251Z,7.03
2022-11-27T07:01:06.674Z,6.47
2022-11-27T07:03:33.803Z,6.45
2022-11-27T07:06:01.753Z,6.35
2022-11-27T07:08:29.033Z,8.13
2022-11-27T07:11:02.212Z,10.88
2022-11-27T07:13:30.677Z,11.40
2022-11-27T07:16:02.060Z,15.13
2022-11-27T07:18:30.319Z,18.20
2022-11-27T07:20:57.229Z,17.05
2022-11-27T07:23:24.106Z,14.55
2022-11-27T07:25:51.007Z,12.93
2022-11-27T07:28:19.178Z,10.38
2022-11-27T07:30:46.634Z,11.52
2022-11-27T07:33:13.464Z,13.20
2022-11-27T07:35:40.313Z,13.30
2022-11-27T07:38:07.169Z,17.55
2022-11-27T07:40:34.042Z,16.80
2022-11-27T07:43:00.953Z,19.73
2022-11-27T07:45:27.907Z,41.55
2022-11-27T07:47:54.846Z,31.87
2022-11-27T07:50:22.006Z,24.80
2022-11-27T07:52:48.881Z,20.23
2022-11-27T07:55:15.814Z,14.65
2022-11-27T07:57:42.726Z,12.48
2022-11-27T08:00:10.593Z,9.48
2022-11-27T08:02:37.537Z,9.75
2022-11-27T08:05:09.513Z,9.32
2022-11-27T08:07:38.041Z,9.82
2022-11-27T08:10:05.523Z,10.05
2022-11-27T08:12:32.379Z,15.90
2022-11-27T08:14:59.297Z,15.82
2022-11-27T08:17:26.234Z,11.23
2022-11-27T08:19:53.097Z,8.43
2022-11-27T08:22:20.876Z,8.30
2022-11-27T08:24:48.343Z,6.45
2022-11-27T08:27:16.432Z,6.37
2022-11-27T08:29:43.449Z,5.97
2022-11-27T08:32:11.398Z,5.32
2022-11-27T08:34:38.452Z,5.12
2022-11-27T08:37:06.579Z,4.32
2022-11-27T08:39:33.768Z,4.68
2022-11-27T08:42:00.870Z,5.30
2022-11-27T08:44:27.873Z,4.53
2022-11-27T08:46:54.760Z,5.12
2022-11-27T08:49:21.844Z,4.68
2022-11-27T08:51:48.728Z,5.40
2022-11-27T08:54:15.616Z,4.03
2022-11-27T08:56:42.542Z,4.75
2022-11-27T08:59:09.456Z,4.80
2022-11-27T09:01:36.433Z,3.92
2022-11-27T09:04:03.438Z,3.58
2022-11-27T09:06:32.034Z,2.83
2022-11-27T09:09:05.519Z,4.18
2022-11-27T09:11:33.493Z,4.07
2022-11-27T09:14:01.587Z,4.15
2022-11-27T09:16:30.330Z,3.12
2022-11-27T09:18:57.916Z,3.37
2022-11-27T09:21:30.554Z,3.35
2022-11-27T09:24:01.823Z,3.72
2022-11-27T09:26:29.665Z,3.92
2022-11-27T09:28:58.471Z,3.83
2022-11-27T09:31:26.300Z,3.33
2022-11-27T09:33:53.486Z,3.72
2022-11-27T09:36:23.082Z,3.47
2022-11-27T09:38:50.322Z,3.42
2022-11-27T09:41:20.169Z,4.18
2022-11-27T09:44:00.586Z,3.58
2022-11-27T09:46:37.529Z,3.28
2022-11-27T09:49:08.051Z,4.15
2022-11-27T09:51:44.593Z,3.53
2022-11-27T09:54:29.104Z,3.85
2022-11-27T09:56:56.580Z,3.50
2022-11-27T09:59:28.556Z,4.53
2022-11-27T10:01:55.670Z,3.97
2022-11-27T10:04:22.700Z,4.28
2022-11-27T10:07:46.754Z,4.68
2022-11-27T10:10:40.954Z,4.37
2022-11-27T10:13:14.877Z,4.10
2022-11-27T10:15:58.601Z,4.20
2022-11-27T10:18:35.011Z,4.05
2022-11-27T10:21:08.815Z,4.73
2022-11-27T10:24:17.117Z,3.83
2022-11-27T10:26:47.262Z,4.78
2022-11-27T10:29:34.054Z,4.85
2022-11-27T10:32:46.663Z,2.65
2022-11-27T10:35:06.323Z,4.97
2022-11-27T10:37:47.221Z,4.65
2022-11-27T10:40:14.150Z,3.85
2022-11-27T10:43:04.876Z,4.60
2022-11-27T10:46:18.196Z,4.80
2022-11-27T10:48:45.202Z,5.15
2022-11-27T10:51:15.965Z,3.87
2022-11-27T10:53:43.455Z,4.55
2022-11-27T10:56:17.321Z,4.00
2022-11-27T10:59:19.989Z,4.40
2022-11-27T11:01:49.708Z,4.90
2022-11-27T11:04:37.412Z,3.55
2022-11-27T11:07:23.619Z,4.05
2022-11-27T11:09:50.563Z,3.95
2022-11-27T11:12:21.370Z,5.30
2022-11-27T11:14:53.054Z,4.43
2022-11-27T11:17:28.675Z,2.53
2022-11-27T11:19:55.744Z,5.12
2022-11-27T11:22:22.813Z,4.70
2022-11-27T11:24:52.093Z,4.85
2022-11-27T11:27:30.469Z,4.57
2022-11-27T11:30:05.900Z,3.70
2022-11-27T11:32:35.403Z,3.67
2022-11-27T11:35:05.327Z,3.60
2022-11-27T11:37:34.141Z,3.33
2022-11-27T11:40:00.931Z,4.03
2022-11-27T11:45:18.430Z,4.37
2022-11-27T11:47:46.606Z,4.30
2022-11-27T11:50:15.389Z,3.87
2022-11-27T11:53:19.544Z,3.75
2022-11-27T11:56:20.262Z,4.57
2022-11-27T11:58:54.591Z,4.55
2022-11-27T12:01:57.269Z,3.08
2022-11-27T12:04:36.214Z,3.70
2022-11-27T12:07:34.283Z,3.92
2022-11-27T12:10:16.882Z,4.05
2022-11-27T12:12:59.300Z,3.55
2022-11-27T12:15:45.534Z,3.87
2022-11-27T12:18:23.069Z,3.70
2022-11-27T12:21:12.837Z,2.92
2022-11-27T12:23:57.282Z,2.83
2022-11-27T12:26:24.115Z,3.15
2022-11-27T12:29:02.928Z,3.67
2022-11-27T12:31:41.963Z,4.10
2022-11-27T12:34:24.070Z,3.47
2022-11-27T12:37:17.009Z,3.40
2022-11-27T12:40:02.509Z,5.32
2022-11-27T12:42:36.418Z,5.47
2022-11-27T12:45:22.243Z,5.47
2022-11-27T12:48:21.016Z,6.12
2022-11-27T12:50:55.410Z,7.00
2022-11-27T12:53:36.405Z,8.45
2022-11-27T12:56:10.526Z,7.40
2022-11-27T12:58:46.092Z,6.12
2022-11-27T13:01:18.795Z,7.53
2022-11-27T13:04:18.393Z,7.85
2022-11-27T13:07:03.639Z,7.68
2022-11-27T13:09:51.605Z,10.65
2022-11-27T13:12:24.929Z,12.57
2022-11-27T13:14:57.139Z,14.55
2022-11-27T13:17:36.051Z,11.70
2022-11-27T13:20:04.496Z,12.43
2022-11-27T13:22:34.866Z,12.20
2022-11-27T13:25:02.779Z,12.32
2022-11-27T13:27:31.682Z,12.77
2022-11-27T13:30:01.830Z,12.35
2022-11-27T13:32:28.682Z,11.45
2022-11-27T13:34:58.080Z,11.40
2022-11-27T13:37:32.054Z,11.93
2022-11-27T13:40:01.328Z,12.05
2022-11-27T13:42:29.081Z,11.65
2022-11-27T13:45:01.288Z,12.35
2022-11-27T13:47:30.763Z,9.65
2022-11-27T13:50:12.187Z,11.00
2022-11-27T13:52:51.294Z,10.32
2022-11-27T13:55:32.739Z,10.90
2022-11-27T13:58:01.281Z,10.25
2022-11-27T14:00:40.523Z,11.90
2022-11-27T14:03:10.801Z,11.65
2022-11-27T14:05:43.791Z,11.45
2022-11-27T14:08:36.644Z,13.90
2022-11-27T14:11:13.277Z,15.68
2022-11-27T14:13:46.568Z,10.20
2022-11-27T14:16:19.617Z,12.25
2022-11-27T14:18:51.572Z,12.85
2022-11-27T14:21:31.251Z,11.15
2022-11-27T14:23:58.161Z,10.98
2022-11-27T14:26:25.734Z,11.57
2022-11-27T14:28:55.101Z,12.13
2022-11-27T14:31:30.901Z,14.13
2022-11-27T14:36:45.248Z,13.38
2022-11-27T14:39:22.349Z,9.48
2022-11-27T14:42:08.063Z,12.95
2022-11-27T14:44:35.230Z,14.30
2022-11-27T14:47:04.306Z,14.02
2022-11-27T14:49:32.317Z,12.27
2022-11-27T14:52:04.194Z,11.65
2022-11-27T14:54:38.706Z,12.73
2022-11-27T14:57:06.690Z,12.30
2022-11-27T14:59:33.824Z,14.10
2022-11-27T15:02:17.707Z,14.18
2022-11-27T15:04:46.213Z,14.25
2022-11-27T15:07:16.896Z,14.87
2022-11-27T15:09:49.347Z,14.20
2022-11-27T15:12:28.946Z,15.68
2022-11-27T15:14:59.218Z,15.15
2022-11-27T15:17:32.223Z,14.32
2022-11-27T15:19:59.698Z,14.63
2022-11-27T15:22:26.804Z,14.27
2022-11-27T15:25:02.030Z,14.27
2022-11-27T15:27:32.803Z,12.02
2022-11-27T15:30:12.321Z,17.55
2022-11-27T15:32:51.772Z,17.33
2022-11-27T15:35:25.923Z,17.12
2022-11-27T15:37:54.957Z,18.40
2022-11-27T15:40:27.903Z,14.40
2022-11-27T15:42:54.758Z,12.80
2022-11-27T15:47:48.432Z,11.27
2022-11-27T15:50:16.400Z,14.40
2022-11-27T15:52:43.828Z,14.90
2022-11-27T15:55:16.002Z,11.93
2022-11-27T15:57:43.483Z,14.07
2022-11-27T16:00:11.120Z,14.45
2022-11-27T16:02:38.260Z,18.83
2022-11-27T16:05:06.552Z,15.35
2022-11-27T16:07:33.798Z,16.37
2022-11-27T16:10:00.978Z,15.75
2022-11-27T16:12:27.850Z,15.27
2022-11-27T16:14:54.709Z,16.87
2022-11-27T16:19:48.555Z,13.13
2022-11-27T16:22:15.471Z,10.15
2022-11-27T16:24:42.731Z,13.30
2022-11-27T16:27:09.818Z,14.80
2022-11-27T16:32:03.580Z,15.35
2022-11-27T16:34:30.489Z,15.10
2022-11-27T16:39:24.191Z,12.73
2022-11-27T16:41:51.117Z,14.10
2022-11-27T16:44:17.972Z,14.35
2022-11-27T16:49:11.881Z,12.32
2022-11-27T16:51:39.448Z,14.27
2022-11-27T16:54:08.860Z,14.27
2022-11-27T16:56:36.451Z,12.40
2022-11-27T16:59:03.686Z,13.32
2022-11-27T17:01:36.056Z,11.98
2022-11-27T17:04:09.112Z,11.93
2022-11-27T17:06:37.763Z,10.52
2022-11-27T17:09:07.371Z,10.30
2022-11-27T17:11:35.938Z,13.07
2022-11-27T17:14:06.099Z,14.10
2022-11-27T17:16:33.264Z,15.25
2022-11-27T17:19:00.316Z,12.43
2022-11-27T17:21:30.498Z,12.50
2022-11-27T17:23:59.526Z,14.80
2022-11-27T17:26:27.961Z,13.07
2022-11-27T17:28:59.622Z,12.27
2022-11-27T17:31:33.748Z,7.97
2022-11-27T17:34:00.709Z,12.13
2022-11-27T17:36:30.409Z,11.80
2022-11-27T17:39:05.462Z,10.57
2022-11-27T17:41:32.656Z,13.57
2022-11-27T17:43:59.696Z,13.95
2022-11-27T17:46:28.615Z,13.48
2022-11-27T17:48:59.175Z,13.30
2022-11-27T17:51:27.622Z,12.70
2022-11-27T17:53:54.508Z,14.13
2022-11-27T17:56:21.730Z,13.55
2022-11-27T17:58:48.597Z,14.65
2022-11-27T18:01:19.538Z,12.27
2022-11-27T18:03:47.227Z,13.40
2022-11-27T18:06:15.325Z,11.43
2022-11-27T18:08:42.730Z,12.82
2022-11-27T18:11:12.719Z,13.93
2022-11-27T18:13:39.824Z,12.88
2022-11-27T18:16:17.801Z,13.10
2022-11-27T18:18:45.265Z,16.12
2022-11-27T18:21:18.229Z,13.23
2022-11-27T18:24:21.262Z,13.57
2022-11-27T18:27:00.519Z,13.27
2022-11-27T18:29:22.156Z,15.73
2022-11-27T18:31:51.112Z,15.05
2022-11-27T18:34:18.137Z,16.02
2022-11-27T18:36:46.129Z,15.13
2022-11-27T18:39:13.448Z,15.07
2022-11-27T18:41:41.013Z,15.23
2022-11-27T18:44:07.933Z,13.73
2022-11-27T18:46:35.178Z,16.58
2022-11-27T18:49:02.179Z,14.73
2022-11-27T18:51:29.184Z,15.25
2022-11-27T18:53:56.730Z,15.77
2022-11-27T18:56:33.099Z,15.82
2022-11-27T18:59:04.328Z,15.50
2022-11-27T19:01:38.186Z,17.00
2022-11-27T19:04:08.226Z,15.30
2022-11-27T19:06:36.021Z,16.90
2022-11-27T19:09:03.433Z,17.25
2022-11-27T19:11:31.127Z,16.87
2022-11-27T19:13:58.474Z,15.57
2022-11-27T19:16:34.193Z,15.38
2022-11-27T19:19:02.378Z,14.70
2022-11-27T19:21:30.907Z,13.73
2022-11-27T19:23:59.070Z,14.02
2022-11-27T19:26:33.365Z,14.70
2022-11-27T19:29:03.769Z,15.95
2022-11-27T19:31:33.177Z,15.85
2022-11-27T19:34:01.868Z,15.15
2022-11-27T19:36:30.425Z,13.93
2022-11-27T19:39:01.316Z,13.85
2022-11-27T19:41:28.438Z,13.62
2022-11-27T19:43:55.378Z,14.32
2022-11-27T19:46:30.754Z,14.60
2022-11-27T19:48:59.580Z,14.27
2022-11-27T19:51:27.397Z,13.95
2022-11-27T19:53:54.503Z,13.55
2022-11-27T19:56:21.619Z,13.52
2022-11-27T19:58:48.640Z,12.98
2022-11-27T20:01:18.383Z,13.48
2022-11-27T20:03:46.076Z,13.18
2022-11-27T20:06:15.508Z,13.48
2022-11-27T20:08:43.042Z,13.27
2022-11-27T20:11:11.902Z,13.07
2022-11-27T20:13:38.899Z,15.00
2022-11-27T20:16:14.134Z,16.35
2022-11-27T20:18:41.471Z,17.95
2022-11-27T20:21:11.602Z,17.08
2022-11-27T20:23:39.524Z,19.17
2022-11-27T20:26:07.689Z,18.60
2022-11-27T20:28:36.046Z,18.33
2022-11-27T20:31:03.559Z,16.77
2022-11-27T20:33:31.417Z,15.45
2022-11-27T20:35:58.702Z,14.18
2022-11-27T20:38:26.718Z,13.13
2022-11-27T20:40:53.760Z,14.13
2022-11-27T20:43:20.726Z,14.75
2022-11-27T20:45:51.278Z,14.60
2022-11-27T20:48:18.201Z,14.63
2022-11-27T20:50:49.761Z,16.87
2022-11-27T20:53:18.173Z,14.77
2022-11-27T20:55:45.361Z,15.45
2022-11-27T20:58:12.286Z,16.87
2022-11-27T21:00:40.566Z,16.85
2022-11-27T21:03:07.692Z,17.55
2022-11-27T21:05:34.577Z,17.20
2022-11-27T21:08:01.527Z,15.80
2022-11-27T21:10:28.563Z,15.27
2022-11-27T21:12:55.466Z,17.50
2022-11-27T21:15:22.365Z,17.17
2022-11-27T21:17:49.257Z,17.20
2022-11-27T21:20:16.264Z,17.15
2022-11-27T21:22:44.191Z,18.50
2022-11-27T21:25:11.145Z,19.30
2022-11-27T21:27:38.271Z,17.98
2022-11-27T21:30:06.445Z,17.70
2022-11-27T21:32:33.482Z,17.95
2022-11-27T21:35:00.347Z,18.98
2022-11-27T21:37:27.293Z,17.37
2022-11-27T21:39:54.159Z,18.92
2022-11-27T21:42:21.056Z,19.85
2022-11-27T21:44:47.911Z,18.30
2022-11-27T21:47:14.832Z,17.55
2022-11-27T21:49:42.146Z,19.58
2022-11-27T21:52:09.004Z,19.73
2022-11-27T21:54:36.644Z,19.83
2022-11-27T21:57:03.554Z,21.77
2022-11-27T21:59:30.428Z,22.48
2022-11-27T22:01:57.527Z,23.90
2022-11-27T22:04:25.355Z,24.17
2022-11-27T22:06:52.402Z,21.85
2022-11-27T22:09:19.398Z,19.80
2022-11-27T22:11:47.006Z,23.90
2022-11-27T22:14:16.026Z,22.02
2022-11-27T22:16:45.991Z,21.90
2022-11-27T22:19:14.586Z,23.42
2022-11-27T22:21:41.974Z,23.40
2022-11-27T22:24:14.859Z,22.95
2022-11-27T22:26:45.124Z,22.05
2022-11-27T22:29:12.017Z,23.05
2022-11-27T22:31:38.918Z,22.30
2022-11-27T22:34:05.831Z,21.02
2022-11-27T22:36:34.222Z,21.40
2022-11-27T22:39:06.208Z,21.02
2022-11-27T22:41:36.572Z,20.40
2022-11-27T22:44:11.971Z,20.58
2022-11-27T22:46:40.933Z,21.12
2022-11-27T22:49:08.604Z,19.00
2022-11-27T22:51:36.553Z,18.77
2022-11-27T22:54:04.817Z,21.25
2022-11-27T22:56:33.887Z,20.95
2022-11-27T22:59:30.470Z,20.80
2022-11-27T23:01:48.824Z,18.52
2022-11-27T23:04:16.139Z,20.60
2022-11-27T23:06:47.565Z,18.60
2022-11-27T23:09:15.555Z,20.67
2022-11-27T23:11:42.481Z,19.33
2022-11-27T23:14:09.419Z,18.05
2022-11-27T23:16:36.614Z,20.90
2022-11-27T23:19:03.749Z,17.58
2022-11-27T23:21:30.791Z,17.50
2022-11-27T23:23:57.784Z,18.23
2022-11-27T23:26:24.653Z,18.80
2022-11-27T23:28:53.620Z,17.77
2022-11-27T23:31:31.662Z,17.92
2022-11-27T23:34:01.365Z,18.95
2022-11-27T23:36:29.280Z,18.67
2022-11-27T23:38:56.362Z,18.65
2022-11-27T23:41:24.798Z,19.67
2022-11-27T23:43:52.815Z,17.95
2022-11-27T23:46:21.461Z,17.80
2022-11-27T23:48:48.873Z,17.62
2022-11-27T23:51:20.920Z,16.83
2022-11-27T23:53:48.369Z,15.82
2022-11-27T23:56:23.206Z,15.57
2022-11-27T23:58:50.185Z,15.23
